Time;durP1;ratioP1;P1;durP2;ratioP2;P2;SDS_P1;SDS_P2;PMS_P1;PMS_P2;Temp;Humidity;BMP_temperature;BMP_pressure;BME280_temperature;BME280_humidity;BME280_pressure;Samples;Min_cycle;Max_cycle;Signal;HPM_P1;HPM_P2
2022/04/17 00:00:38;;;;;;;;;;;5.80;99.90;;;;;;5063824;28;20151;-68
2022/04/17 00:03:06;;;;;;;;;;;5.80;99.90;;;;;;5063889;28;19944;-68
2022/04/17 00:05:33;;;;;;;;;;;5.70;99.90;;;;;;5063659;28;19928;-65
2022/04/17 00:08:00;;;;;;;;;;;5.60;99.90;;;;;;5063747;28;19931;-66
2022/04/17 00:10:28;;;;;;;;;;;5.60;99.90;;;;;;5063845;28;20231;-66
2022/04/17 00:12:54;;;;;;;;;;;5.40;99.90;;;;;;5063856;28;20116;-66
2022/04/17 00:15:21;;;;;;;;;;;5.20;99.90;;;;;;5063581;28;19980;-64
2022/04/17 00:17:47;;;;;;;;;;;5.20;99.90;;;;;;5063689;28;19920;-66
2022/04/17 00:20:15;;;;;;;;;;;5.10;99.90;;;;;;5063996;28;20201;-68
2022/04/17 00:22:42;;;;;;;;;;;5.10;99.90;;;;;;5063545;28;20115;-66
2022/04/17 00:25:09;;;;;;;;;;;5.10;99.90;;;;;;5063524;28;19991;-67
2022/04/17 00:27:38;;;;;;;;;;;5.10;99.90;;;;;;5063621;28;19927;-68
2022/04/17 00:30:06;;;;;;;;;;;5.00;99.90;;;;;;5062705;28;20184;-67
2022/04/17 00:32:32;;;;;;;;;;;5.00;99.90;;;;;;5063819;28;20116;-68
2022/04/17 00:34:59;;;;;;;;;;;4.90;99.90;;;;;;5063444;28;19921;-67
2022/04/17 00:37:26;;;;;;;;;;;4.90;99.90;;;;;;5063711;28;19927;-66
2022/04/17 00:39:52;;;;;;;;;;;4.90;99.90;;;;;;5063503;28;19920;-67
2022/04/17 00:42:20;;;;;;;;;;;4.90;99.90;;;;;;5062893;28;20116;-68
2022/04/17 00:44:48;;;;;;;;;;;4.90;99.90;;;;;;5063420;28;19921;-68
2022/04/17 00:47:16;;;;;;;;;;;4.90;99.90;;;;;;5062985;28;19984;-68
2022/04/17 00:49:43;;;;;;;;;;;4.90;99.90;;;;;;5063514;28;19921;-68
2022/04/17 00:52:10;;;;;;;;;;;4.80;99.90;;;;;;5061022;28;19925;-66
2022/04/17 00:54:39;;;;;;;;;;;4.70;99.90;;;;;;5063175;28;19992;-68
2022/04/17 00:57:06;;;;;;;;;;;4.70;99.90;;;;;;5063140;28;19927;-67
2022/04/17 00:59:33;;;;;;;;;;;4.60;99.90;;;;;;5063072;28;20111;-68
2022/04/17 01:02:01;;;;;;;;;;;4.60;99.90;;;;;;5062647;28;19921;-67
2022/04/17 01:04:28;;;;;;;;;;;4.50;99.90;;;;;;5091307;22;20133;-67
2022/04/17 01:06:54;;;;;;;;;;;4.40;99.90;;;;;;5082769;28;19927;-68
2022/04/17 01:09:21;;;;;;;;;;;4.40;99.90;;;;;;5065933;28;19921;-68
2022/04/17 01:11:48;;;;;;;;;;;4.30;99.90;;;;;;5073417;28;19920;-68
2022/04/17 01:14:15;;;;;;;;;;;4.30;99.90;;;;;;5099261;28;19924;-67
2022/04/17 01:16:42;;;;;;;;;;;4.30;99.90;;;;;;5102877;28;19920;-68
2022/04/17 01:19:12;;;;;;;;;;;4.20;99.90;;;;;;5096295;28;19987;-67
2022/04/17 01:21:41;;;;;;;;;;;4.20;99.90;;;;;;5083085;28;19983;-68
2022/04/17 01:26:59;;;;;;;;;;;4.10;99.90;;;;;;5082926;28;19924;-67
2022/04/17 01:29:27;;;;;;;;;;;4.10;99.90;;;;;;5083112;28;19928;-68
2022/04/17 01:31:54;;;;;;;;;;;4.10;99.90;;;;;;5083037;28;20211;-67
2022/04/17 01:34:21;;;;;;;;;;;4.00;99.90;;;;;;5082978;28;19920;-67
2022/04/17 01:36:49;;;;;;;;;;;4.10;99.90;;;;;;5082722;28;19920;-68
2022/04/17 01:39:16;;;;;;;;;;;4.00;99.90;;;;;;5097178;28;19920;-67
2022/04/17 01:41:42;;;;;;;;;;;4.00;99.90;;;;;;5094232;28;19924;-68
2022/04/17 01:44:09;;;;;;;;;;;3.90;99.90;;;;;;5082923;28;19932;-68
2022/04/17 01:46:36;;;;;;;;;;;4.00;99.90;;;;;;5082722;28;19926;-68
2022/04/17 01:49:03;;;;;;;;;;;3.90;99.90;;;;;;5082831;28;19927;-67
2022/04/17 01:51:33;;;;;;;;;;;3.90;99.90;;;;;;5082833;28;19925;-68
2022/04/17 01:54:01;;;;;;;;;;;3.90;99.90;;;;;;5082569;28;20114;-68
2022/04/17 01:56:28;;;;;;;;;;;3.90;99.90;;;;;;5082461;28;20238;-67
2022/04/17 01:58:55;;;;;;;;;;;3.90;99.90;;;;;;5082698;28;20123;-67
2022/04/17 02:01:21;;;;;;;;;;;3.90;99.90;;;;;;5083029;28;19920;-68
2022/04/17 02:03:48;;;;;;;;;;;3.90;99.90;;;;;;5082241;28;20272;-68
2022/04/17 02:06:15;;;;;;;;;;;3.80;99.90;;;;;;5082890;28;19921;-68
2022/04/17 02:08:42;;;;;;;;;;;3.80;99.90;;;;;;5082536;28;19991;-68
2022/04/17 02:11:10;;;;;;;;;;;3.70;99.90;;;;;;5082379;28;19925;-67
2022/04/17 02:13:37;;;;;;;;;;;3.60;99.90;;;;;;5082852;28;19927;-67
2022/04/17 02:16:03;;;;;;;;;;;3.50;99.90;;;;;;5085969;28;19927;-68
2022/04/17 02:18:30;;;;;;;;;;;3.40;99.90;;;;;;5086561;28;19920;-67
2022/04/17 02:20:56;;;;;;;;;;;3.40;99.90;;;;;;5086450;28;19984;-67
2022/04/17 02:23:23;;;;;;;;;;;3.30;99.90;;;;;;5085934;28;20208;-68
2022/04/17 02:25:50;;;;;;;;;;;3.20;99.90;;;;;;5085492;28;19992;-68
2022/04/17 02:28:18;;;;;;;;;;;3.20;99.90;;;;;;5085653;28;19920;-67
2022/04/17 02:30:44;;;;;;;;;;;3.20;99.90;;;;;;5086026;28;19920;-67
2022/04/17 02:33:11;;;;;;;;;;;3.20;99.90;;;;;;5090123;28;20110;-68
2022/04/17 02:35:37;;;;;;;;;;;3.20;99.90;;;;;;5105874;28;19924;-67
2022/04/17 02:38:04;;;;;;;;;;;3.20;99.90;;;;;;5105792;28;19920;-68
2022/04/17 02:40:31;;;;;;;;;;;3.20;99.90;;;;;;5105914;28;19920;-68
2022/04/17 02:42:59;;;;;;;;;;;3.20;99.90;;;;;;5105811;28;19969;-68
2022/04/17 02:45:27;;;;;;;;;;;3.20;99.90;;;;;;5105415;28;20203;-68
2022/04/17 02:47:54;;;;;;;;;;;3.20;99.90;;;;;;5096904;28;19920;-68
2022/04/17 02:50:22;;;;;;;;;;;3.10;99.90;;;;;;5085454;28;19920;-67
2022/04/17 02:52:49;;;;;;;;;;;3.10;99.90;;;;;;5085174;28;19924;-68
2022/04/17 02:58:19;;;;;;;;;;;3.10;99.90;;;;;;5085496;28;19915;-68
2022/04/17 03:06:15;;;;;;;;;;;2.90;99.90;;;;;;5084559;28;20135;-68
2022/04/17 03:08:42;;;;;;;;;;;2.90;99.90;;;;;;5085033;28;19921;-68
2022/04/17 03:11:09;;;;;;;;;;;2.90;99.90;;;;;;5085122;28;19955;-69
2022/04/17 03:13:36;;;;;;;;;;;2.90;99.90;;;;;;5084915;28;19921;-68
2022/04/17 03:16:04;;;;;;;;;;;2.90;99.90;;;;;;5087761;28;20017;-68
2022/04/17 03:18:31;;;;;;;;;;;2.90;99.90;;;;;;5105040;28;19927;-68
2022/04/17 03:20:59;;;;;;;;;;;2.90;99.90;;;;;;5105526;28;20229;-68
2022/04/17 03:23:25;;;;;;;;;;;2.80;99.90;;;;;;5105030;28;19920;-68
2022/04/17 03:25:52;;;;;;;;;;;2.80;99.90;;;;;;5104951;28;19924;-68
2022/04/17 03:31:23;;;;;;;;;;;2.80;99.90;;;;;;5104797;28;19918;-69
2022/04/17 03:33:50;;;;;;;;;;;2.70;99.90;;;;;;5090902;28;19928;-68
2022/04/17 03:36:16;;;;;;;;;;;2.70;99.90;;;;;;5084226;28;20204;-68
2022/04/17 03:38:43;;;;;;;;;;;2.70;99.90;;;;;;5084662;28;19920;-68
2022/04/17 03:41:09;;;;;;;;;;;2.70;99.90;;;;;;5084775;28;19920;-68
2022/04/17 03:46:40;;;;;;;;;;;2.60;99.90;;;;;;5084008;28;19962;-68
2022/04/17 03:49:07;;;;;;;;;;;2.60;99.90;;;;;;5084426;28;19928;-68
2022/04/17 03:51:34;;;;;;;;;;;2.50;99.90;;;;;;5084448;28;19959;-68
2022/04/17 03:54:00;;;;;;;;;;;2.50;99.90;;;;;;5084431;28;19952;-68
2022/04/17 03:56:27;;;;;;;;;;;2.50;99.90;;;;;;5083973;28;19927;-68
2022/04/17 03:58:54;;;;;;;;;;;2.40;99.90;;;;;;5083927;28;19920;-68
2022/04/17 04:01:20;;;;;;;;;;;2.40;99.90;;;;;;5084392;28;19921;-68
2022/04/17 04:03:50;;;;;;;;;;;2.40;99.90;;;;;;5083841;28;20257;-68
2022/04/17 04:06:17;;;;;;;;;;;2.40;99.90;;;;;;5083945;28;19942;-68
2022/04/17 04:08:44;;;;;;;;;;;2.40;99.90;;;;;;5084416;28;20026;-68
2022/04/17 04:11:10;;;;;;;;;;;2.40;99.90;;;;;;5084118;28;19927;-68
2022/04/17 04:13:37;;;;;;;;;;;2.30;99.90;;;;;;5083830;28;19920;-68
2022/04/17 04:16:04;;;;;;;;;;;2.30;99.90;;;;;;5083753;28;19924;-69
2022/04/17 04:18:31;;;;;;;;;;;2.20;99.90;;;;;;5083756;28;19927;-68
2022/04/17 04:20:59;;;;;;;;;;;2.20;99.90;;;;;;5083883;28;19921;-68
2022/04/17 04:23:25;;;;;;;;;;;2.10;99.90;;;;;;5090666;28;19920;-68
2022/04/17 04:25:52;;;;;;;;;;;2.10;99.90;;;;;;5103666;28;19920;-70
2022/04/17 04:31:03;;;;;;;;;;;2.10;99.90;;;;;;5103904;28;19928;-68
2022/04/17 04:33:31;;;;;;;;;;;2.10;99.90;;;;;;5103737;28;20211;-68
2022/04/17 04:35:59;;;;;;;;;;;2.10;99.90;;;;;;5103667;28;19920;-67
2022/04/17 04:38:26;;;;;;;;;;;2.00;99.90;;;;;;5102643;28;19920;-67
2022/04/17 04:40:52;;;;;;;;;;;2.00;99.90;;;;;;5103451;28;19927;-67
2022/04/17 04:43:19;;;;;;;;;;;2.00;99.90;;;;;;5103768;28;19920;-67
2022/04/17 04:51:15;;;;;;;;;;;2.00;99.90;;;;;;5093452;28;19959;-67
2022/04/17 04:53:42;;;;;;;;;;;2.00;99.90;;;;;;5096493;28;20080;-67
2022/04/17 04:56:09;;;;;;;;;;;2.00;99.90;;;;;;5103223;28;19920;-67
2022/04/17 04:58:36;;;;;;;;;;;2.00;99.90;;;;;;5103026;28;19921;-67
2022/04/17 05:01:02;;;;;;;;;;;2.00;99.90;;;;;;5103136;28;20215;-67
2022/04/17 05:03:29;;;;;;;;;;;2.00;99.90;;;;;;5103274;28;19983;-67
2022/04/17 05:05:55;;;;;;;;;;;2.00;99.90;;;;;;5102630;28;19927;-67
2022/04/17 05:08:23;;;;;;;;;;;2.00;99.90;;;;;;5102520;28;19951;-67
2022/04/17 05:10:50;;;;;;;;;;;2.00;99.90;;;;;;5103264;28;19927;-68
2022/04/17 05:13:17;;;;;;;;;;;2.10;99.90;;;;;;5103108;28;19997;-67
2022/04/17 05:15:44;;;;;;;;;;;2.10;99.90;;;;;;5102567;28;19920;-67
2022/04/17 05:18:10;;;;;;;;;;;2.10;99.90;;;;;;5103146;28;19920;-67
2022/04/17 05:20:37;;;;;;;;;;;2.20;99.90;;;;;;5102849;28;19920;-67
2022/04/17 05:23:15;;;;;;;;;;;2.20;99.90;;;;;;5099254;28;19921;-67
2022/04/17 05:25:43;;;;;;;;;;;2.20;99.90;;;;;;5097870;28;19966;-67
2022/04/17 05:28:10;;;;;;;;;;;2.20;99.90;;;;;;5100290;28;20235;-67
2022/04/17 05:30:37;;;;;;;;;;;2.20;99.90;;;;;;5103287;28;20154;-67
2022/04/17 05:33:03;;;;;;;;;;;2.20;99.90;;;;;;5103439;28;19927;-67
2022/04/17 05:35:30;;;;;;;;;;;2.20;99.90;;;;;;5103339;28;19927;-67
2022/04/17 05:37:57;;;;;;;;;;;2.30;99.90;;;;;;5103336;28;19995;-67
2022/04/17 05:40:23;;;;;;;;;;;2.30;99.90;;;;;;5103633;28;19920;-67
2022/04/17 05:42:53;;;;;;;;;;;2.30;99.90;;;;;;5102220;28;19920;-67
2022/04/17 05:45:20;;;;;;;;;;;2.30;99.90;;;;;;5103135;28;19920;-67
2022/04/17 05:47:47;;;;;;;;;;;2.40;99.90;;;;;;5103414;28;19920;-67
2022/04/17 05:50:14;;;;;;;;;;;2.50;99.90;;;;;;5105779;28;20111;-67
2022/04/17 05:52:41;;;;;;;;;;;2.60;99.90;;;;;;5106876;28;20207;-67
2022/04/17 05:55:09;;;;;;;;;;;2.60;99.90;;;;;;5106725;28;19977;-66
2022/04/17 05:57:36;;;;;;;;;;;2.60;99.90;;;;;;5106587;28;20115;-67
2022/04/17 06:00:08;;;;;;;;;;;2.60;99.90;;;;;;5106711;28;19920;-67
2022/04/17 06:02:35;;;;;;;;;;;2.60;99.90;;;;;;5106594;28;19966;-67
2022/04/17 06:05:03;;;;;;;;;;;2.60;99.90;;;;;;5106571;28;20250;-67
2022/04/17 06:07:31;;;;;;;;;;;2.60;99.90;;;;;;5106306;28;19955;-67
2022/04/17 06:10:01;;;;;;;;;;;2.60;99.90;;;;;;5106511;28;19920;-67
2022/04/17 06:12:28;;;;;;;;;;;2.70;99.90;;;;;;5106615;28;19920;-67
2022/04/17 06:14:54;;;;;;;;;;;2.70;99.90;;;;;;5106740;28;19920;-67
2022/04/17 06:17:23;;;;;;;;;;;2.80;99.90;;;;;;5106110;28;19983;-67
2022/04/17 06:19:50;;;;;;;;;;;2.90;99.90;;;;;;5106667;28;19920;-67
2022/04/17 06:22:17;;;;;;;;;;;3.00;99.90;;;;;;5106464;28;19987;-67
2022/04/17 06:24:44;;;;;;;;;;;3.00;99.90;;;;;;5106382;28;19966;-67
2022/04/17 06:27:11;;;;;;;;;;;3.10;99.90;;;;;;5101822;28;19921;-67
2022/04/17 06:29:37;;;;;;;;;;;3.20;99.90;;;;;;5085700;28;19920;-67
2022/04/17 06:32:04;;;;;;;;;;;3.30;99.90;;;;;;5085928;28;20230;-67
2022/04/17 06:34:32;;;;;;;;;;;3.30;99.90;;;;;;5096847;28;19926;-67
2022/04/17 06:36:59;;;;;;;;;;;3.40;99.90;;;;;;5106119;28;19920;-67
2022/04/17 06:39:25;;;;;;;;;;;3.50;99.90;;;;;;5106331;28;20114;-67
2022/04/17 06:41:54;;;;;;;;;;;3.70;99.90;;;;;;5125733;28;20115;-67
2022/04/17 06:44:21;;;;;;;;;;;3.80;99.90;;;;;;5113541;28;19926;-67
2022/04/17 06:46:47;;;;;;;;;;;4.00;99.90;;;;;;5098990;28;19935;-67
2022/04/17 06:49:14;;;;;;;;;;;4.10;99.90;;;;;;5101934;28;19920;-67
2022/04/17 06:51:42;;;;;;;;;;;4.30;99.90;;;;;;5106091;28;19920;-67
2022/04/17 06:54:09;;;;;;;;;;;4.40;99.90;;;;;;5105838;28;19924;-67
2022/04/17 06:56:35;;;;;;;;;;;4.60;99.90;;;;;;5105794;28;19943;-67
2022/04/17 06:59:05;;;;;;;;;;;4.70;99.90;;;;;;5105972;28;20115;-67
2022/04/17 07:01:32;;;;;;;;;;;4.80;99.90;;;;;;5093295;28;19951;-67
2022/04/17 07:03:59;;;;;;;;;;;4.90;99.90;;;;;;5085548;28;19921;-66
2022/04/17 07:06:25;;;;;;;;;;;5.10;99.90;;;;;;5084551;28;19921;-63
2022/04/17 07:08:53;;;;;;;;;;;5.10;99.90;;;;;;5083904;28;20013;-69
2022/04/17 07:11:23;;;;;;;;;;;5.10;99.90;;;;;;5084730;28;19921;-68
2022/04/17 07:13:49;;;;;;;;;;;5.20;99.90;;;;;;5084993;28;19927;-68
2022/04/17 07:16:16;;;;;;;;;;;5.40;99.90;;;;;;5084287;28;20234;-66
2022/04/17 07:18:46;;;;;;;;;;;5.50;99.90;;;;;;5084781;28;19983;-66
2022/04/17 07:21:17;;;;;;;;;;;5.50;99.90;;;;;;5100198;28;20371;-66
2022/04/17 07:23:46;;;;;;;;;;;5.70;99.90;;;;;;5098019;28;19920;-66
2022/04/17 07:26:15;;;;;;;;;;;5.70;99.90;;;;;;5095232;28;20174;-68
2022/04/17 07:28:41;;;;;;;;;;;5.80;99.90;;;;;;5093480;28;19920;-67
2022/04/17 07:31:08;;;;;;;;;;;6.00;99.90;;;;;;5088092;28;19979;-63
2022/04/17 07:33:35;;;;;;;;;;;6.10;99.90;;;;;;5105282;28;19921;-65
2022/04/17 07:36:02;;;;;;;;;;;6.20;99.90;;;;;;5102899;28;19920;-64
2022/04/17 07:38:28;;;;;;;;;;;6.30;99.90;;;;;;5105369;28;19920;-64
2022/04/17 07:40:55;;;;;;;;;;;6.50;99.90;;;;;;5105625;28;19929;-65
2022/04/17 07:43:23;;;;;;;;;;;6.50;99.90;;;;;;5104918;28;19926;-67
2022/04/17 07:45:49;;;;;;;;;;;6.60;99.90;;;;;;5084946;28;19920;-68
2022/04/17 07:48:16;;;;;;;;;;;6.80;99.90;;;;;;5084546;28;19921;-67
2022/04/17 07:50:43;;;;;;;;;;;6.70;99.90;;;;;;5096401;28;19920;-67
2022/04/17 07:53:09;;;;;;;;;;;7.00;99.90;;;;;;5097011;28;20128;-67
2022/04/17 07:55:36;;;;;;;;;;;7.00;99.90;;;;;;5095352;28;19926;-67
2022/04/17 07:58:07;;;;;;;;;;;7.00;99.90;;;;;;5098749;28;19920;-67
2022/04/17 08:00:44;;;;;;;;;;;7.20;99.90;;;;;;5103784;28;20257;-67
2022/04/17 08:03:20;;;;;;;;;;;7.30;99.90;;;;;;5091936;28;19924;-66
2022/04/17 08:05:47;;;;;;;;;;;7.40;99.90;;;;;;5101629;28;19924;-65
2022/04/17 08:08:14;;;;;;;;;;;7.40;99.90;;;;;;5088732;28;19927;-66
2022/04/17 08:10:41;;;;;;;;;;;7.40;99.90;;;;;;5085983;28;19926;-66
2022/04/17 08:13:07;;;;;;;;;;;7.60;99.90;;;;;;5102182;28;20233;-65
2022/04/17 08:15:35;;;;;;;;;;;7.70;99.90;;;;;;5104011;28;19969;-65
2022/04/17 08:18:02;;;;;;;;;;;7.80;99.90;;;;;;5098236;28;19979;-65
2022/04/17 08:20:28;;;;;;;;;;;8.00;99.90;;;;;;5084421;28;19927;-65
2022/04/17 08:22:55;;;;;;;;;;;8.00;99.90;;;;;;5084331;28;19920;-65
2022/04/17 08:25:22;;;;;;;;;;;8.10;99.90;;;;;;5083989;28;19920;-63
2022/04/17 08:27:49;;;;;;;;;;;8.20;99.90;;;;;;5104461;28;19926;-65
2022/04/17 08:30:19;;;;;;;;;;;8.30;99.90;;;;;;5103743;28;19927;-65
2022/04/17 08:32:47;;;;;;;;;;;8.30;99.90;;;;;;5095371;28;19920;-64
2022/04/17 08:35:14;;;;;;;;;;;8.30;99.90;;;;;;5099337;28;19926;-64
2022/04/17 08:37:40;;;;;;;;;;;8.50;99.90;;;;;;5103933;28;19920;-64
2022/04/17 08:40:08;;;;;;;;;;;8.50;99.90;;;;;;5103694;28;19920;-66
2022/04/17 08:42:35;;;;;;;;;;;8.60;99.90;;;;;;5086236;28;19921;-67
2022/04/17 08:45:01;;;;;;;;;;;8.70;99.90;;;;;;5083042;28;19924;-67
2022/04/17 08:47:28;;;;;;;;;;;8.80;99.90;;;;;;5083315;28;20045;-67
2022/04/17 08:49:56;;;;;;;;;;;8.80;99.90;;;;;;5082253;28;20085;-67
2022/04/17 08:52:23;;;;;;;;;;;8.90;99.90;;;;;;5083629;28;20177;-67
2022/04/17 08:54:50;;;;;;;;;;;8.90;99.90;;;;;;5083524;28;19920;-68
2022/04/17 08:57:17;;;;;;;;;;;8.90;99.90;;;;;;5083163;28;19927;-67
2022/04/17 08:59:44;;;;;;;;;;;8.90;99.90;;;;;;5083608;28;19920;-67
2022/04/17 09:02:11;;;;;;;;;;;8.90;99.90;;;;;;5083536;28;19920;-67
2022/04/17 09:04:38;;;;;;;;;;;9.00;99.90;;;;;;5083177;28;19982;-67
2022/04/17 09:07:06;;;;;;;;;;;9.20;99.90;;;;;;5083174;28;19959;-67
2022/04/17 09:09:34;;;;;;;;;;;9.20;99.90;;;;;;5083247;28;20115;-67
2022/04/17 09:12:00;;;;;;;;;;;9.30;99.90;;;;;;5083005;28;20102;-67
2022/04/17 09:14:27;;;;;;;;;;;9.40;99.90;;;;;;5083234;28;19920;-67
2022/04/17 09:16:53;;;;;;;;;;;9.50;99.90;;;;;;5082968;28;20147;-67
2022/04/17 09:19:20;;;;;;;;;;;9.60;99.90;;;;;;5083183;28;19920;-67
2022/04/17 09:21:54;;;;;;;;;;;9.60;99.90;;;;;;5083399;28;20290;-68
2022/04/17 09:24:24;;;;;;;;;;;9.70;99.90;;;;;;5086038;28;20219;-68
2022/04/17 09:26:54;;;;;;;;;;;9.70;99.90;;;;;;5087014;28;20212;-67
2022/04/17 09:29:22;;;;;;;;;;;9.70;99.90;;;;;;5087266;28;20170;-67
2022/04/17 09:31:56;;;;;;;;;;;9.70;99.90;;;;;;5087259;28;19924;-67
2022/04/17 09:34:22;;;;;;;;;;;9.80;99.90;;;;;;5087164;28;19927;-67
2022/04/17 09:36:52;;;;;;;;;;;9.90;99.90;;;;;;5086727;28;19927;-67
2022/04/17 09:39:20;;;;;;;;;;;9.90;99.90;;;;;;5087214;28;19921;-67
2022/04/17 09:41:56;;;;;;;;;;;10.10;99.90;;;;;;5087010;28;20284;-67
2022/04/17 09:44:35;;;;;;;;;;;10.20;99.90;;;;;;5086907;28;19920;-67
2022/04/17 09:47:02;;;;;;;;;;;10.30;99.90;;;;;;5086790;28;19921;-67
2022/04/17 09:49:28;;;;;;;;;;;10.40;99.90;;;;;;5086331;28;19928;-67
2022/04/17 09:52:05;;;;;;;;;;;10.50;99.90;;;;;;5086977;28;20111;-67
2022/04/17 09:54:32;;;;;;;;;;;10.60;99.90;;;;;;5086498;28;19921;-67
2022/04/17 09:57:00;;;;;;;;;;;10.70;99.90;;;;;;5086681;28;19920;-67
2022/04/17 09:59:27;;;;;;;;;;;10.80;99.90;;;;;;5086430;28;20208;-67
2022/04/17 10:01:55;;;;;;;;;;;10.80;99.90;;;;;;5086376;28;19920;-68
2022/04/17 10:04:22;;;;;;;;;;;10.90;99.90;;;;;;5086430;28;19920;-67
2022/04/17 10:06:49;;;;;;;;;;;11.00;99.90;;;;;;5086183;28;20216;-68
2022/04/17 10:09:16;;;;;;;;;;;11.10;99.90;;;;;;5086328;28;19920;-68
2022/04/17 10:11:43;;;;;;;;;;;11.20;99.90;;;;;;5086544;28;19920;-67
2022/04/17 10:14:11;;;;;;;;;;;11.30;99.90;;;;;;5086278;28;19924;-68
2022/04/17 10:16:40;;;;;;;;;;;11.30;99.90;;;;;;5085954;28;19978;-67
2022/04/17 10:19:11;;;;;;;;;;;11.50;99.70;;;;;;5086155;28;20172;-67
2022/04/17 10:21:39;;;;;;;;;;;11.70;99.60;;;;;;5086325;28;19927;-67
2022/04/17 10:24:06;;;;;;;;;;;11.80;98.00;;;;;;5085755;28;19987;-67
2022/04/17 10:26:38;;;;;;;;;;;11.80;98.20;;;;;;5085845;28;19920;-68
2022/04/17 10:29:06;;;;;;;;;;;11.90;98.50;;;;;;5086064;28;19927;-67
2022/04/17 10:31:40;;;;;;;;;;;11.90;97.70;;;;;;5086275;28;20119;-67
2022/04/17 10:34:34;;;;;;;;;;;11.90;97.00;;;;;;5085977;28;19920;-67
2022/04/17 10:37:06;;;;;;;;;;;12.00;97.90;;;;;;5038154;28;19924;-68
2022/04/17 10:39:35;;;;;;;;;;;12.00;96.70;;;;;;5085994;28;19927;-67
2022/04/17 10:42:02;;;;;;;;;;;12.10;97.80;;;;;;5085146;28;20208;-68
2022/04/17 10:44:29;;;;;;;;;;;12.10;98.50;;;;;;5085938;28;19920;-67
2022/04/17 10:46:57;;;;;;;;;;;12.30;97.50;;;;;;5085630;28;20093;-67
2022/04/17 10:49:29;;;;;;;;;;;12.30;98.20;;;;;;5085586;28;20204;-67
2022/04/17 10:51:57;;;;;;;;;;;12.40;97.30;;;;;;5085856;28;19935;-67
2022/04/17 10:54:24;;;;;;;;;;;12.50;98.40;;;;;;5085558;28;19927;-67
2022/04/17 10:57:00;;;;;;;;;;;12.70;98.10;;;;;;5085232;28;19924;-67
2022/04/17 10:59:28;;;;;;;;;;;12.70;97.50;;;;;;5085712;28;19920;-67
2022/04/17 11:02:21;;;;;;;;;;;12.80;97.10;;;;;;5085358;28;20119;-68
2022/04/17 11:04:53;;;;;;;;;;;12.80;98.00;;;;;;5085224;28;20112;-68
2022/04/17 11:07:29;;;;;;;;;;;12.90;96.80;;;;;;5084992;28;19921;-67
2022/04/17 11:10:20;;;;;;;;;;;12.80;95.10;;;;;;5085321;28;19992;-67
2022/04/17 11:12:48;;;;;;;;;;;12.80;95.30;;;;;;5065367;28;20289;-68
2022/04/17 11:15:21;;;;;;;;;;;12.90;94.30;;;;;;5084897;28;19935;-68
2022/04/17 11:17:50;;;;;;;;;;;13.00;94.50;;;;;;5084943;28;19927;-68
2022/04/17 11:20:17;;;;;;;;;;;13.20;94.30;;;;;;5084995;28;20200;-68
2022/04/17 11:22:43;;;;;;;;;;;13.40;93.70;;;;;;5085093;28;19955;-67
2022/04/17 11:25:11;;;;;;;;;;;13.50;93.90;;;;;;5085284;28;19920;-67
2022/04/17 11:27:41;;;;;;;;;;;13.60;92.20;;;;;;5085013;28;19927;-67
2022/04/17 11:30:08;;;;;;;;;;;13.60;91.90;;;;;;5085198;28;19982;-67
2022/04/17 11:32:49;;;;;;;;;;;13.60;92.90;;;;;;5084885;28;19920;-68
2022/04/17 11:35:18;;;;;;;;;;;13.70;91.90;;;;;;5084549;28;19968;-67
2022/04/17 11:37:53;;;;;;;;;;;13.90;91.10;;;;;;5084618;28;19920;-68
2022/04/17 11:40:20;;;;;;;;;;;13.90;91.30;;;;;;5084743;28;19982;-68
2022/04/17 11:42:47;;;;;;;;;;;14.20;92.70;;;;;;5084447;28;19921;-67
2022/04/17 11:45:15;;;;;;;;;;;14.20;90.50;;;;;;5084322;28;19979;-67
2022/04/17 11:47:42;;;;;;;;;;;14.30;90.70;;;;;;5083438;28;19951;-67
2022/04/17 11:50:10;;;;;;;;;;;14.40;89.90;;;;;;5083708;28;19924;-68
2022/04/17 11:52:38;;;;;;;;;;;14.30;89.90;;;;;;5084539;28;19920;-67
2022/04/17 11:55:05;;;;;;;;;;;14.40;91.70;;;;;;5084482;28;19921;-68
2022/04/17 11:57:32;;;;;;;;;;;14.70;90.90;;;;;;5084192;28;19965;-68
2022/04/17 12:00:00;;;;;;;;;;;14.90;91.40;;;;;;5084118;28;19920;-68
2022/04/17 12:02:28;;;;;;;;;;;15.20;90.80;;;;;;5084126;28;19995;-68
2022/04/17 12:04:56;;;;;;;;;;;15.30;91.00;;;;;;5084389;28;19975;-67
2022/04/17 12:07:23;;;;;;;;;;;15.60;89.80;;;;;;5084065;28;19924;-67
2022/04/17 12:10:02;;;;;;;;;;;15.60;89.60;;;;;;5084105;28;19987;-68
2022/04/17 12:12:33;;;;;;;;;;;15.50;88.00;;;;;;5083920;28;19977;-68
2022/04/17 12:15:03;;;;;;;;;;;15.60;87.70;;;;;;5083964;28;19920;-67
2022/04/17 12:17:30;;;;;;;;;;;15.50;87.40;;;;;;5084016;28;20266;-68
2022/04/17 12:19:57;;;;;;;;;;;15.10;85.00;;;;;;5084018;28;20127;-68
2022/04/17 12:22:24;;;;;;;;;;;14.90;85.20;;;;;;5083983;28;19927;-68
2022/04/17 12:24:52;;;;;;;;;;;14.80;86.70;;;;;;5083769;28;19920;-67
2022/04/17 12:27:20;;;;;;;;;;;15.00;84.70;;;;;;5083280;28;19927;-68
2022/04/17 12:29:47;;;;;;;;;;;15.10;85.10;;;;;;5083587;28;19921;-67
2022/04/17 12:32:15;;;;;;;;;;;15.20;85.00;;;;;;5083569;28;19954;-67
2022/04/17 12:34:45;;;;;;;;;;;15.10;84.50;;;;;;5083578;28;20116;-67
2022/04/17 12:37:19;;;;;;;;;;;15.20;86.40;;;;;;5083525;28;19924;-68
2022/04/17 12:39:46;;;;;;;;;;;15.30;84.30;;;;;;5083600;28;19983;-67
2022/04/17 12:42:17;;;;;;;;;;;15.60;86.40;;;;;;5082643;28;19920;-69
2022/04/17 12:44:44;;;;;;;;;;;16.10;84.80;;;;;;5083664;28;19983;-67
2022/04/17 12:47:11;;;;;;;;;;;16.50;83.20;;;;;;5083141;28;20212;-68
2022/04/17 12:49:38;;;;;;;;;;;16.50;80.40;;;;;;5082870;28;19928;-68
2022/04/17 12:52:05;;;;;;;;;;;16.50;78.80;;;;;;5083108;28;20115;-68
2022/04/17 12:54:32;;;;;;;;;;;16.50;81.50;;;;;;5083330;28;20204;-68
2022/04/17 12:57:01;;;;;;;;;;;16.40;79.30;;;;;;5082970;28;19928;-68
2022/04/17 12:59:38;;;;;;;;;;;16.20;79.00;;;;;;5082866;28;19936;-68
2022/04/17 13:02:11;;;;;;;;;;;15.90;78.60;;;;;;5083198;28;19963;-67
2022/04/17 13:04:41;;;;;;;;;;;15.70;80.40;;;;;;5080028;23;19921;-68
2022/04/17 13:07:09;;;;;;;;;;;15.80;80.10;;;;;;5062645;28;19928;-66
2022/04/17 13:09:35;;;;;;;;;;;16.10;79.30;;;;;;5049187;28;20003;-68
2022/04/17 13:12:02;;;;;;;;;;;16.20;79.00;;;;;;5043155;28;19921;-68
2022/04/17 13:14:30;;;;;;;;;;;16.50;80.10;;;;;;5062125;28;20143;-68
2022/04/17 13:16:57;;;;;;;;;;;16.90;77.80;;;;;;5062804;28;19928;-68
2022/04/17 13:19:24;;;;;;;;;;;17.20;78.90;;;;;;5063037;28;20019;-68
2022/04/17 13:21:51;;;;;;;;;;;17.10;77.50;;;;;;5062968;28;19932;-68
2022/04/17 13:24:19;;;;;;;;;;;17.00;75.50;;;;;;5062276;28;19921;-68
2022/04/17 13:26:46;;;;;;;;;;;16.80;73.30;;;;;;5062672;28;19920;-68
2022/04/17 13:29:13;;;;;;;;;;;16.50;71.80;;;;;;5062928;28;19943;-66
2022/04/17 13:31:41;;;;;;;;;;;16.30;72.70;;;;;;5062822;28;19920;-66
2022/04/17 13:34:07;;;;;;;;;;;16.10;73.20;;;;;;5062818;28;19943;-66
2022/04/17 13:36:34;;;;;;;;;;;16.00;73.80;;;;;;5062525;28;19927;-69
2022/04/17 13:39:01;;;;;;;;;;;16.00;74.90;;;;;;5063016;28;19920;-66
2022/04/17 13:41:28;;;;;;;;;;;15.90;73.90;;;;;;5062653;28;19921;-68
2022/04/17 13:43:55;;;;;;;;;;;16.10;74.50;;;;;;5062814;28;19921;-68
2022/04/17 13:46:23;;;;;;;;;;;16.20;74.50;;;;;;5062361;28;19921;-68
2022/04/17 13:48:51;;;;;;;;;;;16.50;76.40;;;;;;5062584;28;19928;-68
2022/04/17 13:51:17;;;;;;;;;;;16.80;73.50;;;;;;5062231;28;19992;-68
2022/04/17 13:53:44;;;;;;;;;;;16.90;76.10;;;;;;5062710;28;19978;-68
2022/04/17 13:56:10;;;;;;;;;;;16.90;74.60;;;;;;5062460;28;19959;-68
2022/04/17 13:58:37;;;;;;;;;;;17.00;72.40;;;;;;5062664;28;20113;-68
2022/04/17 14:01:04;;;;;;;;;;;17.00;75.30;;;;;;5062656;28;19927;-69
2022/04/17 14:03:30;;;;;;;;;;;17.20;74.50;;;;;;5062342;28;19964;-68
2022/04/17 14:05:59;;;;;;;;;;;17.20;71.60;;;;;;5062596;28;20011;-68
2022/04/17 14:08:27;;;;;;;;;;;17.00;71.40;;;;;;5063849;28;19920;-68
2022/04/17 14:10:53;;;;;;;;;;;16.90;70.30;;;;;;5067250;28;19928;-68
2022/04/17 14:13:20;;;;;;;;;;;16.90;72.40;;;;;;5067958;28;20123;-68
2022/04/17 14:15:46;;;;;;;;;;;17.00;68.60;;;;;;5066482;28;19931;-68
2022/04/17 14:18:13;;;;;;;;;;;16.90;69.20;;;;;;5066506;28;19927;-68
2022/04/17 14:20:39;;;;;;;;;;;17.00;68.70;;;;;;5066036;28;19925;-69
2022/04/17 14:23:07;;;;;;;;;;;17.00;68.30;;;;;;5066114;28;19921;-69
2022/04/17 14:25:35;;;;;;;;;;;17.30;68.10;;;;;;5065977;28;19966;-68
2022/04/17 14:28:01;;;;;;;;;;;17.40;66.80;;;;;;5066082;28;19987;-68
2022/04/17 14:30:28;;;;;;;;;;;17.40;68.50;;;;;;5065887;28;20116;-69
2022/04/17 14:32:54;;;;;;;;;;;17.40;70.00;;;;;;5065973;28;19929;-68
2022/04/17 14:35:21;;;;;;;;;;;17.40;67.70;;;;;;5065682;28;19928;-69
2022/04/17 14:37:48;;;;;;;;;;;17.50;68.60;;;;;;5065872;28;19921;-69
2022/04/17 14:40:15;;;;;;;;;;;17.90;68.20;;;;;;5065970;28;19984;-69
2022/04/17 14:42:42;;;;;;;;;;;18.20;67.30;;;;;;5065698;28;19920;-69
2022/04/17 14:45:09;;;;;;;;;;;18.50;66.30;;;;;;5065647;28;19928;-69
2022/04/17 14:47:36;;;;;;;;;;;17.90;63.10;;;;;;5065487;28;19952;-69
2022/04/17 14:50:02;;;;;;;;;;;17.60;65.40;;;;;;5064713;28;19925;-68
2022/04/17 14:52:29;;;;;;;;;;;17.40;66.40;;;;;;5065575;28;19925;-68
2022/04/17 14:54:56;;;;;;;;;;;17.10;65.30;;;;;;5065331;28;20233;-69